createdAt,value
2019-05-26T00:01:12.659Z,16.65
2019-05-26T00:03:43.817Z,15.72
2019-05-26T00:06:14.991Z,16.15
2019-05-26T00:08:46.187Z,16.87
2019-05-26T00:11:17.490Z,15.98
2019-05-26T00:13:48.567Z,15.98
2019-05-26T00:16:22.217Z,16.42
2019-05-26T00:18:53.227Z,15.20
2019-05-26T00:21:24.419Z,16.10
2019-05-26T00:23:56.362Z,14.13
2019-05-26T00:26:27.537Z,15.80
2019-05-26T00:28:58.257Z,15.15
2019-05-26T00:31:29.172Z,15.72
2019-05-26T00:34:00.291Z,15.10
2019-05-26T00:36:31.331Z,15.93
2019-05-26T00:39:02.475Z,14.95
2019-05-26T00:41:33.387Z,16.23
2019-05-26T00:44:07.449Z,15.03
2019-05-26T00:46:38.723Z,15.98
2019-05-26T00:49:10.103Z,15.05
2019-05-26T00:51:41.295Z,14.60
2019-05-26T00:54:12.284Z,14.05
2019-05-26T00:56:43.636Z,15.48
2019-05-26T00:59:16.146Z,14.95
2019-05-26T01:01:47.623Z,14.07
2019-05-26T01:04:18.373Z,14.03
2019-05-26T01:06:52.099Z,15.05
2019-05-26T01:09:26.398Z,14.23
2019-05-26T01:11:58.288Z,14.78
2019-05-26T01:14:34.219Z,14.60
2019-05-26T01:17:04.526Z,15.93
2019-05-26T01:19:35.677Z,14.50
2019-05-26T01:22:07.850Z,15.43
2019-05-26T01:24:43.327Z,14.83
2019-05-26T01:27:14.496Z,15.70
2019-05-26T01:29:46.081Z,14.80
2019-05-26T01:32:18.253Z,15.78
2019-05-26T01:34:50.658Z,15.13
2019-05-26T01:37:21.702Z,15.28
2019-05-26T01:39:53.044Z,14.33
2019-05-26T01:42:26.874Z,13.98
2019-05-26T01:44:57.815Z,13.80
2019-05-26T01:47:29.681Z,13.35
2019-05-26T01:50:00.644Z,13.20
2019-05-26T01:52:31.868Z,14.65
2019-05-26T01:55:02.881Z,14.07
2019-05-26T01:57:33.729Z,15.28
2019-05-26T02:00:07.291Z,14.83
2019-05-26T02:02:38.423Z,15.18
2019-05-26T02:05:09.685Z,14.63
2019-05-26T02:07:41.343Z,14.93
2019-05-26T02:10:13.399Z,13.25
2019-05-26T02:12:44.427Z,13.40
2019-05-26T02:15:16.127Z,15.00
2019-05-26T02:17:50.050Z,14.40
2019-05-26T02:20:27.325Z,14.18
2019-05-26T02:23:01.083Z,15.93
2019-05-26T02:25:32.711Z,14.15
2019-05-26T02:28:06.968Z,14.05
2019-05-26T02:30:59.034Z,14.30
2019-05-26T02:33:32.242Z,13.58
2019-05-26T02:36:03.898Z,14.07
2019-05-26T02:38:34.860Z,14.20
2019-05-26T02:41:06.178Z,13.48
2019-05-26T02:43:37.087Z,14.35
2019-05-26T02:46:07.874Z,15.75
2019-05-26T02:48:38.911Z,14.25
2019-05-26T02:51:13.276Z,14.87
2019-05-26T02:53:44.492Z,13.98
2019-05-26T02:56:15.809Z,14.35
2019-05-26T02:58:46.788Z,13.18
2019-05-26T03:01:18.638Z,13.03
2019-05-26T03:03:49.837Z,13.43
2019-05-26T03:06:23.396Z,14.98
2019-05-26T03:09:21.119Z,14.87
2019-05-26T03:11:37.215Z,14.23
2019-05-26T03:14:13.128Z,13.93
2019-05-26T03:16:45.327Z,15.40
2019-05-26T03:19:20.628Z,13.08
2019-05-26T03:21:52.851Z,13.88
2019-05-26T03:24:26.187Z,13.40
2019-05-26T03:26:58.721Z,13.68
2019-05-26T03:29:29.805Z,13.18
2019-05-26T03:32:01.183Z,16.42
2019-05-26T03:34:32.558Z,18.12
2019-05-26T03:37:04.556Z,18.95
2019-05-26T03:39:44.613Z,14.07
2019-05-26T03:42:07.927Z,14.33
2019-05-26T03:44:42.340Z,14.70
2019-05-26T03:47:16.634Z,14.83
2019-05-26T03:49:45.229Z,15.60
2019-05-26T03:52:20.160Z,18.62
2019-05-26T03:54:51.551Z,23.10
2019-05-26T03:57:23.564Z,19.62
2019-05-26T03:59:55.171Z,14.65
2019-05-26T04:02:26.428Z,14.65
2019-05-26T04:04:59.297Z,13.70
2019-05-26T04:07:33.087Z,15.58
2019-05-26T04:10:06.391Z,14.15
2019-05-26T04:12:37.943Z,16.62
2019-05-26T04:15:11.111Z,17.37
2019-05-26T04:17:44.549Z,15.30
2019-05-26T04:20:16.062Z,19.20
2019-05-26T04:22:48.405Z,14.68
2019-05-26T04:25:19.631Z,14.35
2019-05-26T04:27:51.002Z,13.70
2019-05-26T04:30:22.103Z,12.95
2019-05-26T04:32:54.595Z,17.20
2019-05-26T04:35:25.725Z,23.55
2019-05-26T04:37:58.322Z,20.57
2019-05-26T04:40:30.401Z,18.67
2019-05-26T04:43:07.116Z,13.70
2019-05-26T04:45:38.013Z,13.70
2019-05-26T04:48:10.276Z,13.35
2019-05-26T04:50:41.386Z,13.03
2019-05-26T04:53:12.584Z,18.17
2019-05-26T04:55:43.600Z,19.30
2019-05-26T04:58:14.756Z,17.67
2019-05-26T05:00:47.164Z,19.98
2019-05-26T05:03:21.228Z,14.93
2019-05-26T05:05:55.195Z,14.10
2019-05-26T05:08:26.219Z,14.07
2019-05-26T05:10:58.442Z,14.18
2019-05-26T05:13:29.747Z,19.75
2019-05-26T05:16:03.545Z,17.90
2019-05-26T05:18:34.484Z,17.50
2019-05-26T05:21:08.444Z,19.85
2019-05-26T05:23:39.732Z,14.60
2019-05-26T05:26:11.062Z,14.18
2019-05-26T05:28:41.982Z,14.05
2019-05-26T05:31:16.089Z,13.62
2019-05-26T05:33:48.372Z,15.65
2019-05-26T05:36:28.749Z,18.02
2019-05-26T05:39:03.400Z,18.80
2019-05-26T05:41:45.012Z,22.13
2019-05-26T05:44:17.518Z,15.63
2019-05-26T05:46:51.527Z,14.03
2019-05-26T05:49:25.767Z,14.85
2019-05-26T05:52:01.013Z,17.02
2019-05-26T05:54:32.179Z,19.50
2019-05-26T06:01:16.770Z,18.37
2019-05-26T06:03:47.593Z,16.40
2019-05-26T06:06:18.685Z,16.12
2019-05-26T06:08:49.584Z,14.33
2019-05-26T06:11:20.690Z,15.28
2019-05-26T06:13:51.882Z,20.72
2019-05-26T06:16:25.418Z,26.05
2019-05-26T06:18:57.430Z,18.30
2019-05-26T06:21:28.499Z,19.98
2019-05-26T06:23:59.582Z,15.75
2019-05-26T06:26:30.356Z,15.90
2019-05-26T06:29:01.316Z,14.90
2019-05-26T06:31:35.145Z,17.67
2019-05-26T06:34:06.457Z,23.05
2019-05-26T06:36:37.539Z,19.10
2019-05-26T06:39:09.968Z,19.30
2019-05-26T06:41:40.874Z,19.45
2019-05-26T06:44:11.821Z,14.78
2019-05-26T06:46:43.026Z,15.43
2019-05-26T06:49:14.684Z,13.68
2019-05-26T06:51:46.112Z,18.15
2019-05-26T06:54:17.308Z,20.90
2019-05-26T06:56:48.338Z,16.35
2019-05-26T06:59:19.478Z,14.80
2019-05-26T07:01:52.065Z,15.93
2019-05-26T07:04:23.169Z,14.38
2019-05-26T07:06:54.892Z,15.53
2019-05-26T07:09:27.124Z,15.53
2019-05-26T07:12:00.474Z,16.52
2019-05-26T07:14:30.888Z,19.25
2019-05-26T07:17:02.390Z,21.50
2019-05-26T07:19:33.809Z,19.45
2019-05-26T07:22:06.364Z,17.82
2019-05-26T07:24:37.465Z,15.43
2019-05-26T07:27:09.876Z,15.93
2019-05-26T07:29:40.871Z,14.90
2019-05-26T07:32:15.132Z,19.27
2019-05-26T07:34:46.122Z,24.05
2019-05-26T07:37:17.450Z,19.05
2019-05-26T07:39:48.417Z,22.10
2019-05-26T07:42:19.856Z,19.12
2019-05-26T07:44:50.943Z,14.93
2019-05-26T07:47:22.739Z,13.93
2019-05-26T07:49:54.044Z,14.20
2019-05-26T07:52:25.349Z,16.32
2019-05-26T07:54:58.398Z,17.98
2019-05-26T07:57:29.719Z,24.15
2019-05-26T08:00:04.400Z,20.02
2019-05-26T08:02:35.361Z,16.00
2019-05-26T08:05:13.262Z,16.15
2019-05-26T08:07:44.866Z,13.65
2019-05-26T08:10:18.451Z,13.05
2019-05-26T08:12:51.282Z,21.07
2019-05-26T08:15:23.435Z,25.08
2019-05-26T08:17:54.537Z,24.77
2019-05-26T08:20:26.592Z,19.75
2019-05-26T08:22:57.940Z,15.38
2019-05-26T08:25:29.073Z,15.40
2019-05-26T08:28:00.192Z,14.90
2019-05-26T08:30:31.858Z,14.50
2019-05-26T08:33:03.079Z,18.90
2019-05-26T08:35:37.604Z,17.37
2019-05-26T08:38:16.941Z,19.45
2019-05-26T08:40:47.857Z,19.75
2019-05-26T08:43:19.049Z,17.87
2019-05-26T08:45:50.249Z,15.55
2019-05-26T08:48:24.391Z,14.50
2019-05-26T08:50:56.649Z,15.98
2019-05-26T08:53:28.274Z,18.02
2019-05-26T08:55:59.200Z,23.75
2019-05-26T08:58:31.974Z,20.02
2019-05-26T09:01:04.446Z,21.77
2019-05-26T09:03:35.586Z,17.60
2019-05-26T09:06:09.758Z,15.63
2019-05-26T09:08:40.790Z,15.63
2019-05-26T09:11:13.443Z,15.30
2019-05-26T09:13:44.910Z,16.23
2019-05-26T09:16:16.035Z,15.53
2019-05-26T09:18:47.157Z,14.98
2019-05-26T09:21:19.541Z,15.05
2019-05-26T09:23:52.708Z,15.25
2019-05-26T09:26:36.465Z,15.00
2019-05-26T09:29:09.557Z,14.87
2019-05-26T09:31:41.749Z,15.15
2019-05-26T09:34:14.817Z,14.47
2019-05-26T09:36:49.022Z,15.40
2019-05-26T09:39:20.276Z,13.90
2019-05-26T09:41:54.817Z,15.08
2019-05-26T09:44:26.184Z,14.10
2019-05-26T09:47:04.166Z,15.45
2019-05-26T09:49:38.423Z,13.43
2019-05-26T09:52:12.608Z,14.13
2019-05-26T09:54:44.940Z,14.80
2019-05-26T09:57:16.075Z,14.80
2019-05-26T09:59:48.325Z,15.48
2019-05-26T10:02:22.488Z,15.48
2019-05-26T10:04:53.389Z,15.90
2019-05-26T10:07:25.575Z,14.93
2019-05-26T10:10:00.393Z,16.23
2019-05-26T10:12:31.907Z,14.83
2019-05-26T10:15:03.368Z,14.83
2019-05-26T10:17:34.351Z,16.25
2019-05-26T10:20:10.004Z,15.85
2019-05-26T10:22:40.832Z,15.40
2019-05-26T10:25:12.363Z,14.70
2019-05-26T10:27:43.763Z,14.70
2019-05-26T10:30:16.700Z,15.08
2019-05-26T10:32:50.781Z,15.60
2019-05-26T10:35:24.226Z,14.43
2019-05-26T10:37:55.934Z,15.43
2019-05-26T10:40:27.164Z,14.93
2019-05-26T10:42:58.350Z,15.83
2019-05-26T10:45:29.420Z,14.90
2019-05-26T10:48:00.341Z,14.78
2019-05-26T10:50:31.596Z,15.13
2019-05-26T10:53:03.747Z,14.43
2019-05-26T10:55:38.149Z,15.95
2019-05-26T10:58:09.552Z,15.20
2019-05-26T11:00:40.607Z,15.50
2019-05-26T11:03:11.809Z,15.08
2019-05-26T11:05:46.531Z,15.75
2019-05-26T11:08:18.916Z,18.62
2019-05-26T11:10:50.158Z,21.33
2019-05-26T11:13:21.315Z,18.42
2019-05-26T11:15:52.499Z,17.48
2019-05-26T11:18:23.503Z,19.32
2019-05-26T11:20:54.942Z,25.55
2019-05-26T11:23:25.988Z,22.07
2019-05-26T11:25:57.063Z,22.95
2019-05-26T11:28:28.212Z,22.07
2019-05-26T11:31:02.149Z,21.05
2019-05-26T11:33:33.165Z,22.62
2019-05-26T11:36:04.332Z,21.93
2019-05-26T11:38:35.325Z,21.35
2019-05-26T11:41:06.872Z,22.32
2019-05-26T11:43:38.168Z,22.80
2019-05-26T11:46:09.115Z,21.02
2019-05-26T11:48:40.152Z,21.40
2019-05-26T11:51:11.419Z,20.25
2019-05-26T11:53:42.645Z,19.82
2019-05-26T11:56:13.684Z,19.75
2019-05-26T11:58:44.931Z,18.75
2019-05-26T12:01:15.729Z,19.17
2019-05-26T12:03:46.788Z,17.37
2019-05-26T12:06:17.919Z,18.05
2019-05-26T12:08:48.639Z,17.50
2019-05-26T12:11:19.544Z,18.95
2019-05-26T12:13:50.734Z,16.87
2019-05-26T12:16:21.511Z,18.23
2019-05-26T12:18:52.677Z,17.70
2019-05-26T12:21:23.893Z,18.32
2019-05-26T12:23:55.200Z,17.80
2019-05-26T12:26:26.338Z,17.95
2019-05-26T12:28:57.475Z,18.00
2019-05-26T12:31:28.282Z,18.02
2019-05-26T12:33:59.459Z,18.12
2019-05-26T12:36:30.398Z,19.05
2019-05-26T12:39:01.252Z,17.25
2019-05-26T12:41:34.019Z,18.77
2019-05-26T12:44:05.723Z,18.75
2019-05-26T12:46:36.866Z,18.70
2019-05-26T12:49:07.770Z,19.48
2019-05-26T12:51:38.799Z,18.92
2019-05-26T12:54:11.374Z,19.95
2019-05-26T12:56:42.758Z,20.55
2019-05-26T12:59:14.898Z,20.52
2019-05-26T13:01:46.024Z,20.32
2019-05-26T13:04:16.881Z,32.90
2019-05-26T13:06:48.022Z,24.57
2019-05-26T13:09:19.222Z,22.05
2019-05-26T13:11:50.242Z,22.82
2019-05-26T13:14:21.155Z,19.00
2019-05-26T13:16:52.299Z,20.12
2019-05-26T13:19:23.121Z,18.65
2019-05-26T13:21:54.133Z,18.32
2019-05-26T13:24:25.969Z,19.37
2019-05-26T13:26:57.292Z,17.40
2019-05-26T13:29:28.474Z,19.17
2019-05-26T13:31:59.358Z,17.07
2019-05-26T13:34:30.407Z,18.70
2019-05-26T13:37:01.484Z,19.23
2019-05-26T13:39:32.631Z,19.77
2019-05-26T13:42:03.819Z,20.25
2019-05-26T13:44:34.775Z,18.77
2019-05-26T13:47:06.083Z,19.12
2019-05-26T13:49:37.129Z,19.02
2019-05-26T13:52:08.352Z,18.57
2019-05-26T13:54:39.490Z,17.82
2019-05-26T13:57:10.772Z,19.32
2019-05-26T13:59:41.765Z,19.62
2019-05-26T14:02:12.910Z,18.48
2019-05-26T14:04:43.993Z,18.75
2019-05-26T14:07:15.174Z,18.25
2019-05-26T14:09:46.116Z,17.07
2019-05-26T14:12:17.308Z,20.27
2019-05-26T14:14:48.340Z,18.73
2019-05-26T14:17:20.375Z,18.85
2019-05-26T14:19:52.900Z,18.37
2019-05-26T14:22:24.029Z,18.17
2019-05-26T14:24:55.079Z,19.25
2019-05-26T14:27:26.107Z,16.85
2019-05-26T14:29:57.269Z,18.52
2019-05-26T14:32:28.380Z,18.12
2019-05-26T14:34:59.217Z,17.42
2019-05-26T14:37:30.502Z,18.92
2019-05-26T14:40:01.746Z,19.20
2019-05-26T14:42:32.939Z,16.95
2019-05-26T14:45:04.450Z,17.57
2019-05-26T14:47:35.440Z,17.20
2019-05-26T14:50:08.402Z,17.42
2019-05-26T14:52:39.302Z,18.17
2019-05-26T14:55:10.902Z,17.70
2019-05-26T14:57:41.767Z,17.42
2019-05-26T15:00:13.596Z,17.92
2019-05-26T15:02:46.018Z,18.48
2019-05-26T15:05:17.034Z,18.10
2019-05-26T15:07:47.997Z,16.82
2019-05-26T15:10:22.495Z,17.20
2019-05-26T15:12:52.135Z,18.15
2019-05-26T15:15:23.762Z,17.40
2019-05-26T15:17:54.837Z,16.97
2019-05-26T15:20:25.889Z,16.07
2019-05-26T15:22:57.051Z,17.52
2019-05-26T15:25:27.983Z,16.77
2019-05-26T15:27:58.956Z,17.00
2019-05-26T15:30:30.233Z,16.45
2019-05-26T15:33:01.330Z,17.00
2019-05-26T15:35:32.255Z,16.32
2019-05-26T15:38:03.363Z,17.90
2019-05-26T15:40:34.375Z,17.15
2019-05-26T15:43:05.299Z,16.95
2019-05-26T15:45:36.226Z,16.10
2019-05-26T15:48:07.358Z,15.85
2019-05-26T15:50:38.320Z,16.00
2019-05-26T15:53:09.478Z,16.27
2019-05-26T15:55:40.527Z,16.85
2019-05-26T15:58:11.727Z,15.65
2019-05-26T16:00:42.995Z,17.62
2019-05-26T16:03:13.941Z,16.57
2019-05-26T16:05:44.830Z,16.85
2019-05-26T16:08:15.932Z,17.42
2019-05-26T16:10:46.764Z,16.70
2019-05-26T16:13:18.050Z,16.87
2019-05-26T16:15:49.257Z,16.48
2019-05-26T16:18:20.268Z,17.50
2019-05-26T16:21:02.731Z,14.68
2019-05-26T16:23:24.942Z,15.53
2019-05-26T16:25:55.599Z,15.85
2019-05-26T16:28:27.725Z,15.28
2019-05-26T16:30:58.945Z,15.98
2019-05-26T16:33:29.817Z,16.48
2019-05-26T16:36:00.802Z,16.20
2019-05-26T16:38:32.856Z,17.70
2019-05-26T16:41:06.633Z,16.23
2019-05-26T16:43:36.398Z,16.05
2019-05-26T16:46:07.250Z,16.23
2019-05-26T16:48:38.413Z,17.60
2019-05-26T16:51:09.877Z,16.60
2019-05-26T16:53:41.140Z,16.73
2019-05-26T16:56:12.039Z,15.93
2019-05-26T16:58:43.028Z,16.35
2019-05-26T17:01:14.184Z,17.15
2019-05-26T17:03:45.326Z,17.30
2019-05-26T17:06:16.598Z,16.55
2019-05-26T17:08:47.561Z,16.40
2019-05-26T17:11:18.482Z,16.37
2019-05-26T17:13:49.332Z,15.93
2019-05-26T17:16:20.367Z,16.48
2019-05-26T17:18:51.559Z,15.10
2019-05-26T17:21:22.380Z,16.27
2019-05-26T17:23:53.608Z,16.12
2019-05-26T17:26:24.531Z,15.93
2019-05-26T17:28:55.738Z,17.62
2019-05-26T17:31:26.887Z,15.30
2019-05-26T17:33:58.414Z,16.05
2019-05-26T17:36:29.631Z,16.95
2019-05-26T17:39:00.790Z,15.85
2019-05-26T17:41:31.938Z,16.90
2019-05-26T17:44:02.777Z,16.27
2019-05-26T17:46:33.965Z,16.02
2019-05-26T17:49:05.090Z,17.20
2019-05-26T17:51:36.321Z,15.70
2019-05-26T17:54:07.490Z,16.48
2019-05-26T17:56:38.471Z,16.87
2019-05-26T17:59:09.417Z,17.75
2019-05-26T18:01:40.428Z,17.27
2019-05-26T18:04:11.312Z,16.12
2019-05-26T18:06:42.782Z,15.88
2019-05-26T18:09:13.772Z,15.98
2019-05-26T18:11:44.864Z,15.60
2019-05-26T18:14:15.923Z,16.65
2019-05-26T18:16:47.013Z,16.48
2019-05-26T18:19:18.013Z,16.32
2019-05-26T18:21:48.855Z,14.85
2019-05-26T18:24:19.616Z,14.73
2019-05-26T18:26:50.605Z,17.12
2019-05-26T18:29:21.568Z,15.45
2019-05-26T18:31:52.645Z,15.58
2019-05-26T18:34:23.785Z,15.32
2019-05-26T18:36:54.978Z,15.40
2019-05-26T18:39:25.846Z,15.58
2019-05-26T18:41:56.809Z,15.48
2019-05-26T18:44:27.582Z,16.23
2019-05-26T18:46:58.937Z,15.55
2019-05-26T18:49:29.964Z,17.42
2019-05-26T18:52:01.083Z,15.90
2019-05-26T18:54:32.194Z,16.85
2019-05-26T18:57:03.186Z,16.70
2019-05-26T18:59:34.289Z,16.00
2019-05-26T19:02:05.455Z,16.10
2019-05-26T19:04:36.393Z,15.83
2019-05-26T19:07:08.245Z,16.62
2019-05-26T19:09:39.166Z,15.30
2019-05-26T19:12:10.283Z,16.27
2019-05-26T19:14:41.360Z,16.80
2019-05-26T19:17:12.392Z,17.50
2019-05-26T19:19:44.803Z,16.10
2019-05-26T19:22:16.116Z,16.37
2019-05-26T19:24:48.036Z,14.90
2019-05-26T19:27:19.246Z,16.32
2019-05-26T19:29:49.979Z,17.10
2019-05-26T19:32:20.762Z,16.12
2019-05-26T19:34:51.798Z,16.37
2019-05-26T19:37:22.731Z,15.15
2019-05-26T19:39:53.782Z,16.93
2019-05-26T19:42:24.947Z,16.15
2019-05-26T19:44:55.836Z,16.30
2019-05-26T19:47:27.255Z,15.95
2019-05-26T19:49:58.366Z,15.72
2019-05-26T19:52:29.516Z,16.10
2019-05-26T19:55:00.521Z,16.40
2019-05-26T19:57:31.330Z,17.00
2019-05-26T20:00:03.500Z,17.65
2019-05-26T20:02:34.669Z,16.87
2019-05-26T20:05:07.343Z,15.70
2019-05-26T20:07:38.435Z,16.17
2019-05-26T20:10:10.506Z,16.25
2019-05-26T20:12:42.673Z,16.65
2019-05-26T20:15:14.243Z,15.93
2019-05-26T20:17:45.597Z,16.55
2019-05-26T20:20:16.990Z,16.10
2019-05-26T20:22:48.021Z,15.10
2019-05-26T20:25:19.238Z,16.75
2019-05-26T20:27:51.120Z,16.55
2019-05-26T20:30:23.124Z,17.52
2019-05-26T20:32:54.856Z,16.45
2019-05-26T20:35:25.736Z,17.15
2019-05-26T20:37:56.822Z,15.88
2019-05-26T20:40:27.965Z,16.87
2019-05-26T20:42:58.876Z,17.60
2019-05-26T20:45:30.153Z,16.93
2019-05-26T20:48:01.500Z,16.48
2019-05-26T20:50:32.378Z,16.70
2019-05-26T20:53:03.404Z,16.93
2019-05-26T20:55:34.309Z,17.35
2019-05-26T20:58:05.014Z,18.52
2019-05-26T21:00:36.013Z,17.77
2019-05-26T21:03:07.052Z,18.35
2019-05-26T21:05:38.115Z,18.52
2019-05-26T21:08:09.064Z,17.75
2019-05-26T21:10:40.079Z,17.70
2019-05-26T21:13:11.144Z,18.12
2019-05-26T21:15:42.149Z,18.87
2019-05-26T21:18:13.082Z,16.20
2019-05-26T21:20:44.677Z,18.82
2019-05-26T21:23:15.637Z,18.35
2019-05-26T21:25:49.233Z,18.57
2019-05-26T21:28:20.426Z,18.73
2019-05-26T21:30:51.575Z,18.70
2019-05-26T21:33:22.648Z,18.45
2019-05-26T21:35:53.825Z,18.65
2019-05-26T21:38:24.848Z,19.65
2019-05-26T21:40:56.408Z,20.30
2019-05-26T21:43:27.494Z,20.17
2019-05-26T21:45:58.385Z,21.40
2019-05-26T21:48:29.745Z,20.90
2019-05-26T21:51:00.723Z,21.37
2019-05-26T21:53:31.862Z,21.12
2019-05-26T21:56:02.873Z,22.87
2019-05-26T21:58:34.065Z,22.52
2019-05-26T22:01:05.294Z,22.07
2019-05-26T22:03:36.433Z,20.92
2019-05-26T22:06:07.568Z,20.72
2019-05-26T22:08:38.525Z,20.90
2019-05-26T22:11:09.520Z,20.40
2019-05-26T22:13:40.502Z,21.62
2019-05-26T22:16:11.469Z,21.93
2019-05-26T22:18:42.511Z,21.27
2019-05-26T22:21:13.604Z,20.55
2019-05-26T22:23:44.625Z,20.65
2019-05-26T22:26:15.676Z,20.77
2019-05-26T22:28:46.774Z,19.77
2019-05-26T22:31:17.848Z,19.62
2019-05-26T22:33:49.016Z,20.05
2019-05-26T22:36:20.194Z,20.05
2019-05-26T22:38:51.480Z,20.57
2019-05-26T22:41:22.687Z,21.45
2019-05-26T22:43:53.685Z,20.80
2019-05-26T22:46:24.502Z,20.72
2019-05-26T22:48:55.442Z,21.57
2019-05-26T22:51:26.822Z,21.87
2019-05-26T22:54:00.682Z,20.68
2019-05-26T22:56:31.626Z,21.00
2019-05-26T22:59:02.900Z,21.45
2019-05-26T23:01:33.715Z,20.25
2019-05-26T23:04:04.675Z,20.57
2019-05-26T23:06:35.596Z,19.87
2019-05-26T23:09:07.555Z,20.30
2019-05-26T23:11:38.338Z,20.60
2019-05-26T23:14:10.492Z,20.05
2019-05-26T23:16:41.837Z,19.80
2019-05-26T23:19:19.457Z,18.90
2019-05-26T23:21:45.127Z,19.40
2019-05-26T23:24:15.962Z,20.52
2019-05-26T23:26:46.835Z,19.55
2019-05-26T23:29:17.885Z,18.87
2019-05-26T23:31:49.020Z,18.45
2019-05-26T23:34:20.148Z,20.27
2019-05-26T23:36:52.598Z,19.75
2019-05-26T23:39:23.463Z,20.00
2019-05-26T23:41:54.407Z,19.23
2019-05-26T23:44:25.436Z,19.82
2019-05-26T23:46:56.639Z,19.42
2019-05-26T23:49:27.857Z,18.98
2019-05-26T23:51:59.190Z,18.20
2019-05-26T23:54:29.950Z,18.55
2019-05-26T23:57:00.958Z,19.80
2019-05-26T23:59:31.997Z,17.67
